Time,TemperatureF,DewpointF,PressureIn,WindDirection,WindDirectionDegrees,WindSpeedMPH,WindSpeedGustMPH,Humidity,HourlyPrecipIn,Conditions,Clouds,dailyrainin,SolarRadiationWatts/m^2,SoftwareType,DateUTC
2013-06-30 00:02:00,65.5,51.7,29.84,ESE,103,4.0,4.0,61,0.00,,,0.00,0,Wunderground v.1.15,2013-06-30 06:02:00,
2013-06-30 00:08:00,65.1,51.8,29.84,East,94,5.0,5.0,62,0.00,,,0.00,0,Wunderground v.1.15,2013-06-30 06:08:00,
2013-06-30 00:14:00,65.0,51.7,29.84,ENE,69,5.0,5.0,62,0.00,,,0.00,0,Wunderground v.1.15,2013-06-30 06:14:00,
2013-06-30 00:20:00,65.1,51.3,29.84,ENE,73,4.0,4.0,61,0.00,,,0.00,0,Wunderground v.1.15,2013-06-30 06:20:00,
2013-06-30 00:26:00,65.3,51.5,29.84,ENE,70,3.0,4.0,61,0.00,,,0.00,0,Wunderground v.1.15,2013-06-30 06:26:00,
2013-06-30 00:32:00,65.4,51.6,29.84,SSW,193,1.0,4.0,61,0.00,,,0.00,0,Wunderground v.1.15,2013-06-30 06:32:00,
2013-06-30 00:38:00,65.2,52.7,29.84,SSW,194,0.0,4.0,64,0.00,,,0.00,0,Wunderground v.1.15,2013-06-30 06:38:00,
2013-06-30 00:44:00,64.9,52.0,29.84,SSW,193,0.0,0.0,63,0.00,,,0.00,0,Wunderground v.1.15,2013-06-30 06:44:00,
2013-06-30 00:50:00,64.4,51.5,29.84,SSW,194,0.0,0.0,63,0.00,,,0.00,0,Wunderground v.1.15,2013-06-30 06:50:00,
2013-06-30 01:00:00,63.5,51.5,29.85,SSW,193,0.0,0.0,65,0.00,,,0.00,0,Wunderground v.1.15,2013-06-30 07:00:00,
2013-06-30 01:06:00,62.9,51.0,29.85,SSW,193,0.0,0.0,65,0.00,,,0.00,0,Wunderground v.1.15,2013-06-30 07:06:00,
2013-06-30 01:12:00,62.2,51.1,29.85,SSW,193,0.0,0.0,67,0.00,,,0.00,0,Wunderground v.1.15,2013-06-30 07:12:00,
2013-06-30 01:22:00,60.7,51.2,29.85,South,191,0.0,1.0,71,0.00,,,0.00,0,Wunderground v.1.15,2013-06-30 07:22:00,
2013-06-30 01:30:00,59.7,51.4,29.86,SE,146,1.0,3.0,74,0.00,,,0.00,0,Wunderground v.1.15,2013-06-30 07:30:00,
2013-06-30 01:36:00,59.1,51.5,29.86,SE,146,1.0,3.0,76,0.00,,,0.00,0,Wunderground v.1.15,2013-06-30 07:36:00,
2013-06-30 01:42:00,58.7,51.5,29.85,SE,143,2.0,2.0,77,0.00,,,0.00,0,Wunderground v.1.15,2013-06-30 07:42:00,
2013-06-30 01:48:00,58.4,51.6,29.85,SSE,147,2.0,2.0,78,0.00,,,0.00,0,Wunderground v.1.15,2013-06-30 07:48:00,
2013-06-30 01:54:00,58.1,51.3,29.85,SSE,147,1.0,4.0,78,0.00,,,0.00,0,Wunderground v.1.15,2013-06-30 07:54:00,
2013-06-30 02:00:00,58.0,51.9,29.85,South,182,2.0,5.0,80,0.00,,,0.00,0,Wunderground v.1.15,2013-06-30 08:00:00,
2013-06-30 02:06:00,57.8,51.7,29.85,South,173,3.0,5.0,80,0.00,,,0.00,0,Wunderground v.1.15,2013-06-30 08:06:00,
2013-06-30 02:12:00,57.7,51.6,29.85,South,173,2.0,3.0,80,0.00,,,0.00,0,Wunderground v.1.15,2013-06-30 08:12:00,
2013-06-30 02:18:00,57.6,51.8,29.85,South,175,2.0,5.0,81,0.00,,,0.00,0,Wunderground v.1.15,2013-06-30 08:18:00,
2013-06-30 02:24:00,57.6,52.1,29.84,SE,142,4.0,4.0,82,0.00,,,0.00,0,Wunderground v.1.15,2013-06-30 08:24:00,
2013-06-30 02:30:00,57.5,51.7,29.84,SE,138,3.0,4.0,81,0.00,,,0.00,0,Wunderground v.1.15,2013-06-30 08:30:00,
2013-06-30 02:36:00,57.5,51.7,29.84,SE,140,3.0,4.0,81,0.00,,,0.00,0,Wunderground v.1.15,2013-06-30 08:36:00,
2013-06-30 02:42:00,57.4,51.9,29.84,SE,143,4.0,6.0,82,0.00,,,0.00,0,Wunderground v.1.15,2013-06-30 08:42:00,
2013-06-30 02:48:00,57.2,51.8,29.84,SE,136,4.0,6.0,82,0.00,,,0.00,0,Wunderground v.1.15,2013-06-30 08:48:00,
2013-06-30 02:56:00,57.1,52.0,29.84,SE,131,4.0,5.0,83,0.00,,,0.00,0,Wunderground v.1.15,2013-06-30 08:56:00,
2013-06-30 03:02:00,57.3,52.8,29.83,ESE,107,4.0,4.0,85,0.00,,,0.00,0,Wunderground v.1.15,2013-06-30 09:02:00,
2013-06-30 03:08:00,57.7,52.9,29.83,ESE,117,5.0,6.0,84,0.00,,,0.00,0,Wunderground v.1.15,2013-06-30 09:08:00,
2013-06-30 03:14:00,58.3,53.2,29.83,SE,137,5.0,7.0,83,0.00,,,0.00,0,Wunderground v.1.15,2013-06-30 09:14:00,
2013-06-30 03:20:00,58.6,52.8,29.83,ESE,115,5.0,5.0,81,0.00,,,0.00,0,Wunderground v.1.15,2013-06-30 09:20:00,
2013-06-30 03:26:00,59.1,52.6,29.83,SSE,156,5.0,5.0,79,0.00,,,0.00,0,Wunderground v.1.15,2013-06-30 09:26:00,
2013-06-30 03:32:00,59.3,52.8,29.83,South,175,3.0,4.0,79,0.00,,,0.00,0,Wunderground v.1.15,2013-06-30 09:32:00,
2013-06-30 03:38:00,59.2,52.3,29.83,SE,140,4.0,5.0,78,0.00,,,0.00,0,Wunderground v.1.15,2013-06-30 09:38:00,
2013-06-30 03:44:00,59.0,52.8,29.83,SE,134,4.0,5.0,80,0.00,,,0.00,0,Wunderground v.1.15,2013-06-30 09:44:00,
2013-06-30 03:50:00,58.8,52.0,29.83,SSE,157,3.0,3.0,78,0.00,,,0.00,0,Wunderground v.1.15,2013-06-30 09:50:00,
2013-06-30 03:56:00,58.6,52.1,29.83,SSE,160,2.0,4.0,79,0.00,,,0.00,0,Wunderground v.1.15,2013-06-30 09:56:00,
2013-06-30 04:02:00,58.5,52.0,29.82,SE,136,3.0,3.0,79,0.00,,,0.00,0,Wunderground v.1.15,2013-06-30 10:02:00,
2013-06-30 04:08:00,58.3,51.8,29.82,SE,127,3.0,6.0,79,0.00,,,0.00,0,Wunderground v.1.15,2013-06-30 10:08:00,
2013-06-30 04:14:00,58.2,52.1,29.82,SSE,147,3.0,3.0,80,0.00,,,0.00,0,Wunderground v.1.15,2013-06-30 10:14:00,
2013-06-30 04:20:00,58.1,52.0,29.82,South,180,2.0,2.0,80,0.00,,,0.00,0,Wunderground v.1.15,2013-06-30 10:20:00,
2013-06-30 04:26:00,58.1,52.0,29.83,South,178,2.0,6.0,80,0.00,,,0.00,0,Wunderground v.1.15,2013-06-30 10:26:00,
2013-06-30 04:32:00,58.2,52.1,29.83,South,182,4.0,6.0,80,0.00,,,0.00,0,Wunderground v.1.15,2013-06-30 10:32:00,
2013-06-30 04:38:00,58.4,51.9,29.83,SSE,162,4.0,6.0,79,0.00,,,0.00,0,Wunderground v.1.15,2013-06-30 10:38:00,
2013-06-30 04:44:00,58.4,51.9,29.83,South,180,3.0,6.0,79,0.00,,,0.00,0,Wunderground v.1.15,2013-06-30 10:44:00,
2013-06-30 04:50:00,58.3,51.5,29.83,SE,146,3.0,3.0,78,0.00,,,0.00,0,Wunderground v.1.15,2013-06-30 10:50:00,
2013-06-30 04:58:00,58.2,51.7,29.83,SE,138,2.0,3.0,79,0.00,,,0.00,0,Wunderground v.1.15,2013-06-30 10:58:00,
2013-06-30 05:04:00,58.0,51.5,29.83,SE,138,2.0,2.0,79,0.00,,,0.00,0,Wunderground v.1.15,2013-06-30 11:04:00,
2013-06-30 05:12:00,57.8,51.3,29.83,SE,138,0.0,0.0,79,0.00,,,0.00,0,Wunderground v.1.15,2013-06-30 11:12:00,
2013-06-30 05:18:00,57.5,50.0,29.83,SE,138,0.0,0.0,76,0.00,,,0.00,0,Wunderground v.1.15,2013-06-30 11:18:00,
2013-06-30 05:26:00,56.9,49.8,29.83,SE,138,0.0,0.0,77,0.00,,,0.00,0,Wunderground v.1.15,2013-06-30 11:26:00,
2013-06-30 05:32:00,56.4,50.0,29.83,SE,138,0.0,0.0,79,0.00,,,0.00,0,Wunderground v.1.15,2013-06-30 11:32:00,
2013-06-30 05:38:00,56.0,50.3,29.83,SE,139,0.0,0.0,81,0.00,,,0.00,0,Wunderground v.1.15,2013-06-30 11:38:00,
2013-06-30 05:44:00,55.7,50.3,29.83,SE,139,0.0,0.0,82,0.00,,,0.00,5,Wunderground v.1.15,2013-06-30 11:44:00,
2013-06-30 05:50:00,55.4,49.7,29.83,SE,139,0.0,0.0,81,0.00,,,0.00,5,Wunderground v.1.15,2013-06-30 11:50:00,
2013-06-30 05:56:00,55.0,49.3,29.84,SE,139,0.0,0.0,81,0.00,,,0.00,9,Wunderground v.1.15,2013-06-30 11:56:00,
2013-06-30 06:02:00,54.9,49.8,29.84,SE,139,0.0,0.0,83,0.00,,,0.00,11,Wunderground v.1.15,2013-06-30 12:02:00,
2013-06-30 06:08:00,54.7,50.0,29.84,SE,138,0.0,2.0,84,0.00,,,0.00,14,Wunderground v.1.15,2013-06-30 12:08:00,
2013-06-30 06:14:00,54.6,49.5,29.85,SE,138,1.0,1.0,83,0.00,,,0.00,32,Wunderground v.1.15,2013-06-30 12:14:00,
2013-06-30 06:20:00,54.6,50.2,29.85,SE,138,0.0,0.0,85,0.00,,,0.00,26,Wunderground v.1.15,2013-06-30 12:20:00,
2013-06-30 06:28:00,54.7,50.6,29.86,SE,138,0.0,0.0,86,0.00,,,0.00,54,Wunderground v.1.15,2013-06-30 12:28:00,
2013-06-30 06:34:00,55.0,51.2,29.86,SE,138,0.0,0.0,87,0.00,,,0.00,58,Wunderground v.1.15,2013-06-30 12:34:00,
2013-06-30 06:40:00,55.3,51.2,29.86,SE,138,0.0,0.0,86,0.00,,,0.00,56,Wunderground v.1.15,2013-06-30 12:40:00,
2013-06-30 06:48:00,56.3,52.8,29.86,SE,138,0.0,0.0,88,0.00,,,0.00,63,Wunderground v.1.15,2013-06-30 12:48:00,
2013-06-30 06:54:00,57.1,53.3,29.86,SE,138,0.0,0.0,87,0.00,,,0.00,65,Wunderground v.1.15,2013-06-30 12:54:00,
2013-06-30 07:00:00,57.8,53.6,29.86,SE,138,0.0,0.0,86,0.00,,,0.00,83,Wunderground v.1.15,2013-06-30 13:00:00,
2013-06-30 07:06:00,58.6,54.1,29.87,SE,138,0.0,0.0,85,0.00,,,0.00,98,Wunderground v.1.15,2013-06-30 13:06:00,
2013-06-30 07:12:00,59.4,53.9,29.87,SE,138,0.0,0.0,82,0.00,,,0.00,118,Wunderground v.1.15,2013-06-30 13:12:00,
2013-06-30 07:18:00,60.2,54.3,29.87,SE,139,0.0,0.0,81,0.00,,,0.00,127,Wunderground v.1.15,2013-06-30 13:18:00,
2013-06-30 07:24:00,61.1,54.9,29.86,North,5,0.0,0.0,80,0.00,,,0.00,113,Wunderground v.1.15,2013-06-30 13:24:00,
2013-06-30 07:30:00,61.9,54.6,29.87,NNW,341,1.0,1.0,77,0.00,,,0.00,81,Wunderground v.1.15,2013-06-30 13:30:00,
2013-06-30 07:36:00,62.4,54.4,29.86,NNW,341,1.0,1.0,75,0.00,,,0.00,98,Wunderground v.1.15,2013-06-30 13:36:00,
2013-06-30 07:42:00,62.7,55.4,29.86,NNW,341,0.0,0.0,77,0.00,,,0.00,104,Wunderground v.1.15,2013-06-30 13:42:00,
2013-06-30 07:48:00,63.0,55.7,29.87,NNW,341,0.0,0.0,77,0.00,,,0.00,120,Wunderground v.1.15,2013-06-30 13:48:00,
2013-06-30 07:54:00,63.5,55.8,29.86,NNW,342,0.0,0.0,76,0.00,,,0.00,91,Wunderground v.1.15,2013-06-30 13:54:00,
2013-06-30 08:00:00,64.0,55.5,29.86,NNW,334,1.0,1.0,74,0.00,,,0.00,47,Wunderground v.1.15,2013-06-30 14:00:00,
2013-06-30 08:06:00,64.3,55.1,29.87,NNW,334,1.0,1.0,72,0.00,,,0.00,30,Wunderground v.1.15,2013-06-30 14:06:00,
2013-06-30 08:12:00,64.4,54.8,29.87,NNW,334,0.0,0.0,71,0.00,,,0.00,30,Wunderground v.1.15,2013-06-30 14:12:00,
2013-06-30 08:18:00,64.3,55.1,29.87,NNW,334,0.0,0.0,72,0.00,,,0.00,37,Wunderground v.1.15,2013-06-30 14:18:00,
2013-06-30 08:24:00,64.1,55.3,29.87,NNW,334,0.0,0.0,73,0.00,,,0.00,46,Wunderground v.1.15,2013-06-30 14:24:00,
2013-06-30 08:30:00,64.0,55.9,29.87,NNW,334,0.0,0.0,75,0.00,,,0.00,47,Wunderground v.1.15,2013-06-30 14:30:00,
2013-06-30 08:36:00,64.1,55.6,29.87,NNW,334,0.0,0.0,74,0.00,,,0.00,74,Wunderground v.1.15,2013-06-30 14:36:00,
2013-06-30 08:42:00,64.8,55.9,29.87,NNW,334,0.0,0.0,73,0.00,,,0.00,144,Wunderground v.1.15,2013-06-30 14:42:00,
2013-06-30 08:48:00,65.8,56.1,29.87,NNW,334,0.0,0.0,71,0.00,,,0.00,253,Wunderground v.1.15,2013-06-30 14:48:00,
2013-06-30 08:54:00,66.7,57.4,29.88,NNW,334,1.0,1.0,72,0.00,,,0.00,374,Wunderground v.1.15,2013-06-30 14:54:00,
2013-06-30 09:02:00,67.9,57.8,29.87,NW,324,2.0,2.0,70,0.00,,,0.00,454,Wunderground v.1.15,2013-06-30 15:02:00,
2013-06-30 09:08:00,68.7,57.3,29.87,NNW,337,2.0,2.0,67,0.00,,,0.00,496,Wunderground v.1.15,2013-06-30 15:08:00,
2013-06-30 09:14:00,69.3,58.3,29.87,NW,311,1.0,3.0,68,0.00,,,0.00,515,Wunderground v.1.15,2013-06-30 15:14:00,
2013-06-30 09:20:00,69.8,57.5,29.87,NW,304,3.0,5.0,65,0.00,,,0.00,529,Wunderground v.1.15,2013-06-30 15:20:00,
2013-06-30 09:26:00,70.2,57.4,29.87,NW,304,3.0,5.0,64,0.00,,,0.00,550,Wunderground v.1.15,2013-06-30 15:26:00,
2013-06-30 09:32:00,70.6,57.8,29.87,NW,314,2.0,3.0,64,0.00,,,0.00,564,Wunderground v.1.15,2013-06-30 15:32:00,
2013-06-30 09:38:00,71.0,58.6,29.87,NW,312,2.0,5.0,65,0.00,,,0.00,582,Wunderground v.1.15,2013-06-30 15:38:00,
2013-06-30 09:44:00,71.4,59.0,29.87,NW,322,3.0,5.0,65,0.00,,,0.00,599,Wunderground v.1.15,2013-06-30 15:44:00,
2013-06-30 09:50:00,71.7,58.9,29.87,NW,317,3.0,4.0,64,0.00,,,0.00,613,Wunderground v.1.15,2013-06-30 15:50:00,
2013-06-30 09:56:00,72.1,60.1,29.87,NW,319,3.0,5.0,66,0.00,,,0.00,631,Wunderground v.1.15,2013-06-30 15:56:00,
2013-06-30 10:02:00,72.8,58.6,29.87,NW,310,2.0,4.0,61,0.00,,,0.00,647,Wunderground v.1.15,2013-06-30 16:02:00,
2013-06-30 10:08:00,73.4,56.7,29.86,NW,309,2.0,4.0,56,0.00,,,0.00,661,Wunderground v.1.15,2013-06-30 16:08:00,
2013-06-30 10:14:00,74.2,58.5,29.86,WNW,300,3.0,5.0,58,0.00,,,0.00,679,Wunderground v.1.15,2013-06-30 16:14:00,
2013-06-30 10:22:00,75.2,56.4,29.86,WNW,298,4.0,4.0,52,0.00,,,0.00,696,Wunderground v.1.15,2013-06-30 16:22:00,
2013-06-30 10:30:00,76.1,56.7,29.86,NW,316,3.0,3.0,51,0.00,,,0.00,714,Wunderground v.1.15,2013-06-30 16:30:00,
2013-06-30 10:36:00,76.6,56.6,29.86,NW,317,2.0,5.0,50,0.00,,,0.00,728,Wunderground v.1.15,2013-06-30 16:36:00,
2013-06-30 10:42:00,77.3,56.1,29.86,WNW,296,4.0,5.0,48,0.00,,,0.00,745,Wunderground v.1.15,2013-06-30 16:42:00,
2013-06-30 10:48:00,77.8,57.7,29.86,WNW,297,3.0,5.0,50,0.00,,,0.00,759,Wunderground v.1.15,2013-06-30 16:48:00,
2013-06-30 10:54:00,78.3,57.0,29.86,NW,309,2.0,6.0,48,0.00,,,0.00,772,Wunderground v.1.15,2013-06-30 16:54:00,
2013-06-30 11:00:00,79.0,57.0,29.86,NW,317,3.0,6.0,47,0.00,,,0.00,786,Wunderground v.1.15,2013-06-30 17:00:00,
2013-06-30 11:06:00,79.3,56.1,29.86,NW,321,3.0,6.0,45,0.00,,,0.00,800,Wunderground v.1.15,2013-06-30 17:06:00,
2013-06-30 11:12:00,79.8,57.8,29.86,NW,317,3.0,3.0,47,0.00,,,0.00,814,Wunderground v.1.15,2013-06-30 17:12:00,
2013-06-30 11:18:00,80.1,56.8,29.86,NNW,331,3.0,6.0,45,0.00,,,0.00,824,Wunderground v.1.15,2013-06-30 17:18:00,
2013-06-30 11:24:00,80.1,58.0,29.86,NW,319,4.0,6.0,47,0.00,,,0.00,838,Wunderground v.1.15,2013-06-30 17:24:00,
2013-06-30 11:30:00,80.4,58.3,29.86,WNW,301,4.0,4.0,47,0.00,,,0.00,851,Wunderground v.1.15,2013-06-30 17:30:00,
2013-06-30 11:36:00,80.9,59.4,29.86,NW,316,5.0,6.0,48,0.00,,,0.00,860,Wunderground v.1.15,2013-06-30 17:36:00,
2013-06-30 11:42:00,81.4,58.6,29.85,WNW,302,5.0,5.0,46,0.00,,,0.00,872,Wunderground v.1.15,2013-06-30 17:42:00,
2013-06-30 11:48:00,82.0,58.6,29.86,NW,304,6.0,11.0,45,0.00,,,0.00,886,Wunderground v.1.15,2013-06-30 17:48:00,
2013-06-30 11:58:00,82.9,60.0,29.86,WNW,298,7.0,9.0,46,0.00,,,0.00,896,Wunderground v.1.15,2013-06-30 17:58:00,
2013-06-30 12:04:00,83.3,60.4,29.85,NW,317,7.0,9.0,46,0.00,,,0.00,904,Wunderground v.1.15,2013-06-30 18:04:00,
2013-06-30 12:10:00,83.6,60.6,29.85,WNW,298,7.0,7.0,46,0.00,,,0.00,914,Wunderground v.1.15,2013-06-30 18:10:00,
2013-06-30 12:16:00,84.1,62.3,29.85,NW,306,6.0,9.0,48,0.00,,,0.00,921,Wunderground v.1.15,2013-06-30 18:16:00,
2013-06-30 12:22:00,84.5,61.4,29.85,NW,318,6.0,7.0,46,0.00,,,0.00,930,Wunderground v.1.15,2013-06-30 18:22:00,
2013-06-30 12:28:00,84.6,61.5,29.85,WNW,296,7.0,10.0,46,0.00,,,0.00,935,Wunderground v.1.15,2013-06-30 18:28:00,
2013-06-30 12:34:00,84.6,62.1,29.85,WNW,303,7.0,8.0,47,0.00,,,0.00,944,Wunderground v.1.15,2013-06-30 18:34:00,
2013-06-30 12:36:00,84.7,61.0,29.85,WNW,288,7.0,9.0,45,0.00,,,0.00,947,Wunderground v.1.15,2013-06-30 18:36:00,
2013-06-30 12:42:00,85.1,61.4,29.85,WNW,295,6.0,7.0,45,0.00,,,0.00,954,Wunderground v.1.15,2013-06-30 18:42:00,
2013-06-30 12:48:00,85.4,61.0,29.84,WNW,294,6.0,7.0,44,0.00,,,0.00,958,Wunderground v.1.15,2013-06-30 18:48:00,
2013-06-30 12:54:00,85.8,62.0,29.84,WNW,294,7.0,9.0,45,0.00,,,0.00,967,Wunderground v.1.15,2013-06-30 18:54:00,
2013-06-30 13:00:00,86.2,61.7,29.84,NNW,329,7.0,7.0,44,0.00,,,0.00,972,Wunderground v.1.15,2013-06-30 19:00:00,
2013-06-30 13:06:00,85.8,61.4,29.84,WNW,299,7.0,12.0,44,0.00,,,0.00,981,Wunderground v.1.15,2013-06-30 19:06:00,
2013-06-30 13:12:00,86.1,62.3,29.84,NNW,327,7.0,7.0,45,0.00,,,0.00,979,Wunderground v.1.15,2013-06-30 19:12:00,
2013-06-30 13:18:00,86.8,61.6,29.84,NW,325,7.0,10.0,43,0.00,,,0.00,983,Wunderground v.1.15,2013-06-30 19:18:00,
2013-06-30 13:24:00,87.2,61.3,29.84,NW,321,7.0,9.0,42,0.00,,,0.00,984,Wunderground v.1.15,2013-06-30 19:24:00,
2013-06-30 13:30:00,86.8,61.0,29.83,NW,309,7.0,7.0,42,0.00,,,0.00,988,Wunderground v.1.15,2013-06-30 19:30:00,
2013-06-30 13:36:00,87.1,64.4,29.83,NW,311,7.0,9.0,47,0.00,,,0.00,993,Wunderground v.1.15,2013-06-30 19:36:00,
2013-06-30 13:42:00,87.4,61.5,29.83,NW,323,8.0,10.0,42,0.00,,,0.00,995,Wunderground v.1.15,2013-06-30 19:42:00,
2013-06-30 13:48:00,87.7,64.4,29.83,NW,304,8.0,10.0,46,0.00,,,0.00,993,Wunderground v.1.15,2013-06-30 19:48:00,
2013-06-30 13:54:00,88.3,62.3,29.83,WNW,293,8.0,10.0,42,0.00,,,0.00,998,Wunderground v.1.15,2013-06-30 19:54:00,
2013-06-30 14:00:00,88.7,64.0,29.83,WNW,299,8.0,9.0,44,0.00,,,0.00,997,Wunderground v.1.15,2013-06-30 20:00:00,
2013-06-30 14:06:00,89.2,63.1,29.83,NW,310,8.0,10.0,42,0.00,,,0.00,991,Wunderground v.1.15,2013-06-30 20:06:00,
2013-06-30 14:12:00,89.2,62.4,29.83,WNW,298,8.0,8.0,41,0.00,,,0.00,990,Wunderground v.1.15,2013-06-30 20:12:00,
2013-06-30 14:18:00,89.5,62.7,29.83,WNW,302,8.0,9.0,41,0.00,,,0.00,990,Wunderground v.1.15,2013-06-30 20:18:00,
2013-06-30 14:24:00,89.4,61.9,29.83,NW,305,8.0,9.0,40,0.00,,,0.00,993,Wunderground v.1.15,2013-06-30 20:24:00,
2013-06-30 14:30:00,89.5,61.3,29.83,NW,325,6.0,6.0,39,0.00,,,0.00,983,Wunderground v.1.15,2013-06-30 20:30:00,
2013-06-30 14:36:00,89.6,62.8,29.83,WNW,288,6.0,11.0,41,0.00,,,0.00,974,Wunderground v.1.15,2013-06-30 20:36:00,
2013-06-30 14:42:00,89.9,63.0,29.83,WNW,287,7.0,7.0,41,0.00,,,0.00,977,Wunderground v.1.15,2013-06-30 20:42:00,
2013-06-30 14:48:00,90.1,61.1,29.83,NW,307,6.0,8.0,38,0.00,,,0.00,963,Wunderground v.1.15,2013-06-30 20:48:00,
2013-06-30 14:54:00,89.7,61.5,29.82,NW,305,7.0,10.0,39,0.00,,,0.00,960,Wunderground v.1.15,2013-06-30 20:54:00,
2013-06-30 15:00:00,89.2,61.7,29.82,NW,309,7.0,7.0,40,0.00,,,0.00,967,Wunderground v.1.15,2013-06-30 21:00:00,
2013-06-30 15:06:00,89.2,59.5,29.82,NW,321,6.0,8.0,37,0.00,,,0.00,954,Wunderground v.1.15,2013-06-30 21:06:00,
2013-06-30 15:12:00,89.6,61.4,29.81,WNW,285,5.0,6.0,39,0.00,,,0.00,953,Wunderground v.1.15,2013-06-30 21:12:00,
2013-06-30 15:18:00,89.9,60.1,29.82,NW,304,4.0,6.0,37,0.00,,,0.00,933,Wunderground v.1.15,2013-06-30 21:18:00,
2013-06-30 15:24:00,90.4,59.8,29.82,NNW,348,3.0,3.0,36,0.00,,,0.00,923,Wunderground v.1.15,2013-06-30 21:24:00,
2013-06-30 15:30:00,90.3,60.5,29.82,WNW,290,4.0,4.0,37,0.00,,,0.00,914,Wunderground v.1.15,2013-06-30 21:30:00,
2013-06-30 15:38:00,90.8,59.4,29.81,NNW,340,4.0,4.0,35,0.00,,,0.00,900,Wunderground v.1.15,2013-06-30 21:38:00,
2013-06-30 15:48:00,90.9,59.5,29.81,NW,325,4.0,7.0,35,0.00,,,0.00,882,Wunderground v.1.15,2013-06-30 21:48:00,
2013-06-30 15:54:00,90.9,59.5,29.81,NW,315,5.0,5.0,35,0.00,,,0.00,870,Wunderground v.1.15,2013-06-30 21:54:00,
2013-06-30 16:00:00,91.0,58.7,29.81,NW,306,5.0,5.0,34,0.00,,,0.00,853,Wunderground v.1.15,2013-06-30 22:00:00,
2013-06-30 16:08:00,91.3,60.6,29.81,NW,309,5.0,9.0,36,0.00,,,0.00,837,Wunderground v.1.15,2013-06-30 22:08:00,
2013-06-30 16:14:00,91.5,59.2,29.81,NW,304,6.0,6.0,34,0.00,,,0.00,826,Wunderground v.1.15,2013-06-30 22:14:00,
2013-06-30 16:22:00,91.8,61.0,29.81,WNW,290,4.0,6.0,36,0.00,,,0.00,805,Wunderground v.1.15,2013-06-30 22:22:00,
2013-06-30 16:28:00,91.8,58.6,29.81,NNW,339,5.0,6.0,33,0.00,,,0.00,793,Wunderground v.1.15,2013-06-30 22:28:00,
2013-06-30 16:36:00,91.4,59.9,29.81,NNW,327,5.0,5.0,35,0.00,,,0.00,782,Wunderground v.1.15,2013-06-30 22:36:00,
2013-06-30 16:42:00,91.6,60.1,29.81,West,276,5.0,9.0,35,0.00,,,0.00,772,Wunderground v.1.15,2013-06-30 22:42:00,
2013-06-30 16:48:00,91.5,60.0,29.81,NW,317,7.0,10.0,35,0.00,,,0.00,756,Wunderground v.1.15,2013-06-30 22:48:00,
2013-06-30 16:54:00,91.0,59.5,29.81,NW,311,7.0,8.0,35,0.00,,,0.00,742,Wunderground v.1.15,2013-06-30 22:54:00,
2013-06-30 17:02:00,90.7,60.8,29.80,NW,312,7.0,7.0,37,0.00,,,0.00,728,Wunderground v.1.15,2013-06-30 23:02:00,
2013-06-30 17:08:00,90.6,59.2,29.80,WNW,294,7.0,7.0,35,0.00,,,0.00,714,Wunderground v.1.15,2013-06-30 23:08:00,
2013-06-30 17:14:00,90.2,58.8,29.80,NW,313,7.0,7.0,35,0.00,,,0.00,696,Wunderground v.1.15,2013-06-30 23:14:00,
2013-06-30 17:20:00,90.1,59.5,29.81,NW,310,6.0,6.0,36,0.00,,,0.00,671,Wunderground v.1.15,2013-06-30 23:20:00,
2013-06-30 17:26:00,90.1,59.5,29.80,WNW,295,7.0,9.0,36,0.00,,,0.00,657,Wunderground v.1.15,2013-06-30 23:26:00,
2013-06-30 17:32:00,90.0,60.2,29.80,NW,313,7.0,9.0,37,0.00,,,0.00,643,Wunderground v.1.15,2013-06-30 23:32:00,
2013-06-30 17:38:00,89.9,60.9,29.80,NW,312,7.0,9.0,38,0.00,,,0.00,626,Wunderground v.1.15,2013-06-30 23:38:00,
2013-06-30 17:46:00,89.8,60.1,29.81,WNW,288,8.0,11.0,37,0.00,,,0.00,603,Wunderground v.1.15,2013-06-30 23:46:00,
2013-06-30 17:52:00,89.7,60.0,29.80,WNW,282,9.0,9.0,37,0.00,,,0.00,585,Wunderground v.1.15,2013-06-30 23:52:00,
2013-06-30 17:58:00,89.6,59.1,29.80,WNW,287,9.0,13.0,36,0.00,,,0.00,568,Wunderground v.1.15,2013-06-30 23:58:00,
2013-06-30 18:04:00,89.4,58.9,29.80,WNW,302,9.0,9.0,36,0.00,,,0.00,552,Wunderground v.1.15,2013-07-01 00:04:00,
2013-06-30 18:10:00,89.2,58.8,29.80,NW,311,8.0,8.0,36,0.00,,,0.00,534,Wunderground v.1.15,2013-07-01 00:10:00,
2013-06-30 18:16:00,89.1,58.7,29.80,NW,311,7.0,9.0,36,0.00,,,0.00,513,Wunderground v.1.15,2013-07-01 00:16:00,
2013-06-30 18:22:00,88.9,56.9,29.80,NW,326,6.0,7.0,34,0.00,,,0.00,499,Wunderground v.1.15,2013-07-01 00:22:00,
2013-06-30 18:28:00,88.9,59.3,29.80,WNW,301,6.0,10.0,37,0.00,,,0.00,482,Wunderground v.1.15,2013-07-01 00:28:00,
2013-06-30 18:34:00,88.8,59.2,29.80,WNW,296,7.0,7.0,37,0.00,,,0.00,462,Wunderground v.1.15,2013-07-01 00:34:00,
2013-06-30 18:40:00,88.7,58.3,29.80,NW,307,7.0,7.0,36,0.00,,,0.00,441,Wunderground v.1.15,2013-07-01 00:40:00,
2013-06-30 18:46:00,88.5,58.1,29.80,NW,304,7.0,11.0,36,0.00,,,0.00,422,Wunderground v.1.15,2013-07-01 00:46:00,
2013-06-30 18:52:00,88.2,57.9,29.80,WNW,302,7.0,11.0,36,0.00,,,0.00,404,Wunderground v.1.15,2013-07-01 00:52:00,
2013-06-30 18:58:00,87.8,58.3,29.80,NW,306,6.0,11.0,37,0.00,,,0.00,387,Wunderground v.1.15,2013-07-01 00:58:00,
2013-06-30 19:04:00,87.4,57.9,29.80,NW,315,7.0,11.0,37,0.00,,,0.00,369,Wunderground v.1.15,2013-07-01 01:04:00,
2013-06-30 19:10:00,87.0,59.0,29.80,NW,314,7.0,7.0,39,0.00,,,0.00,348,Wunderground v.1.15,2013-07-01 01:10:00,
2013-06-30 19:16:00,86.7,58.8,29.80,NW,306,6.0,7.0,39,0.00,,,0.00,330,Wunderground v.1.15,2013-07-01 01:16:00,
2013-06-30 19:22:00,86.5,57.9,29.80,WNW,288,6.0,6.0,38,0.00,,,0.00,311,Wunderground v.1.15,2013-07-01 01:22:00,
2013-06-30 19:28:00,86.2,56.9,29.80,NW,309,7.0,7.0,37,0.00,,,0.00,292,Wunderground v.1.15,2013-07-01 01:28:00,
2013-06-30 19:34:00,85.9,58.8,29.80,WNW,294,7.0,7.0,40,0.00,,,0.00,272,Wunderground v.1.15,2013-07-01 01:34:00,
2013-06-30 19:40:00,85.6,57.8,29.80,WNW,297,6.0,6.0,39,0.00,,,0.00,257,Wunderground v.1.15,2013-07-01 01:40:00,
2013-06-30 19:46:00,85.3,58.2,29.80,NW,304,5.0,9.0,40,0.00,,,0.00,236,Wunderground v.1.15,2013-07-01 01:46:00,
2013-06-30 19:52:00,85.1,58.8,29.80,WNW,299,5.0,5.0,41,0.00,,,0.00,213,Wunderground v.1.15,2013-07-01 01:52:00,
2013-06-30 19:58:00,84.8,58.5,29.80,WNW,302,4.0,5.0,41,0.00,,,0.00,192,Wunderground v.1.15,2013-07-01 01:58:00,
2013-06-30 20:08:00,84.5,59.5,29.80,NW,304,4.0,5.0,43,0.00,,,0.00,158,Wunderground v.1.15,2013-07-01 02:08:00,
2013-06-30 20:14:00,84.1,58.5,29.80,WNW,290,4.0,6.0,42,0.00,,,0.00,127,Wunderground v.1.15,2013-07-01 02:14:00,
2013-06-30 20:20:00,83.6,59.4,29.80,WNW,300,5.0,5.0,44,0.00,,,0.00,114,Wunderground v.1.15,2013-07-01 02:20:00,
2013-06-30 20:26:00,82.9,58.7,29.80,WNW,292,5.0,5.0,44,0.00,,,0.00,91,Wunderground v.1.15,2013-07-01 02:26:00,
2013-06-30 20:32:00,82.4,58.9,29.80,WNW,294,3.0,4.0,45,0.00,,,0.00,84,Wunderground v.1.15,2013-07-01 02:32:00,
2013-06-30 20:38:00,81.9,59.1,29.80,WNW,294,2.0,4.0,46,0.00,,,0.00,69,Wunderground v.1.15,2013-07-01 02:38:00,
2013-06-30 20:44:00,81.4,58.0,29.80,WNW,294,2.0,2.0,45,0.00,,,0.00,56,Wunderground v.1.15,2013-07-01 02:44:00,
2013-06-30 20:50:00,80.7,59.2,29.81,WNW,288,3.0,3.0,48,0.00,,,0.00,44,Wunderground v.1.15,2013-07-01 02:50:00,
2013-06-30 20:56:00,80.0,59.1,29.81,WNW,288,3.0,3.0,49,0.00,,,0.00,33,Wunderground v.1.15,2013-07-01 02:56:00,
2013-06-30 21:02:00,79.3,59.6,29.81,WNW,288,2.0,2.0,51,0.00,,,0.00,23,Wunderground v.1.15,2013-07-01 03:02:00,
2013-06-30 21:08:00,78.6,59.0,29.81,North,9,1.0,3.0,51,0.00,,,0.00,14,Wunderground v.1.15,2013-07-01 03:08:00,
2013-06-30 21:14:00,77.4,58.4,29.82,North,9,1.0,1.0,52,0.00,,,0.00,11,Wunderground v.1.15,2013-07-01 03:14:00,
2013-06-30 21:20:00,76.4,58.0,29.81,North,355,1.0,1.0,53,0.00,,,0.00,9,Wunderground v.1.15,2013-07-01 03:20:00,
2013-06-30 21:26:00,75.3,58.0,29.81,NNW,336,2.0,4.0,55,0.00,,,0.00,5,Wunderground v.1.15,2013-07-01 03:26:00,
2013-06-30 21:32:00,74.8,57.5,29.81,NW,315,2.0,2.0,55,0.00,,,0.00,0,Wunderground v.1.15,2013-07-01 03:32:00,
2013-06-30 21:38:00,74.2,57.0,29.82,NW,320,1.0,4.0,55,0.00,,,0.00,0,Wunderground v.1.15,2013-07-01 03:38:00,
2013-06-30 21:44:00,73.6,56.9,29.82,NNW,331,2.0,4.0,56,0.00,,,0.00,0,Wunderground v.1.15,2013-07-01 03:44:00,
2013-06-30 21:50:00,73.1,57.0,29.83,NNW,331,1.0,1.0,57,0.00,,,0.00,0,Wunderground v.1.15,2013-07-01 03:50:00,
2013-06-30 21:56:00,72.7,57.5,29.83,NNW,331,0.0,1.0,59,0.00,,,0.00,0,Wunderground v.1.15,2013-07-01 03:56:00,
2013-06-30 22:02:00,71.9,56.8,29.83,NNW,331,0.0,0.0,59,0.00,,,0.00,0,Wunderground v.1.15,2013-07-01 04:02:00,
2013-06-30 22:04:00,71.6,57.4,29.83,NNW,331,0.0,0.0,61,0.00,,,0.00,0,Wunderground v.1.15,2013-07-01 04:04:00,
2013-06-30 22:06:00,71.4,57.7,29.83,NNW,331,0.0,0.0,62,0.00,,,0.00,0,Wunderground v.1.15,2013-07-01 04:06:00,
2013-06-30 22:10:00,71.0,57.8,29.83,NNW,331,0.0,0.0,63,0.00,,,0.00,0,Wunderground v.1.15,2013-07-01 04:10:00,
2013-06-30 22:16:00,70.4,57.2,29.84,NNW,331,0.0,0.0,63,0.00,,,0.00,0,Wunderground v.1.15,2013-07-01 04:16:00,
2013-06-30 22:22:00,69.6,56.4,29.84,NNW,331,0.0,0.0,63,0.00,,,0.00,0,Wunderground v.1.15,2013-07-01 04:22:00,
2013-06-30 22:28:00,68.9,55.8,29.84,NNW,331,0.0,0.0,63,0.00,,,0.00,0,Wunderground v.1.15,2013-07-01 04:28:00,
2013-06-30 22:30:00,68.8,56.1,29.84,NNW,331,0.0,0.0,64,0.00,,,0.00,0,Wunderground v.1.15,2013-07-01 04:30:00,
2013-06-30 22:36:00,68.2,56.4,29.84,NNW,331,0.0,0.0,66,0.00,,,0.00,0,Wunderground v.1.15,2013-07-01 04:36:00,
2013-06-30 22:42:00,67.5,55.7,29.84,NNW,331,0.0,0.0,66,0.00,,,0.00,0,Wunderground v.1.15,2013-07-01 04:42:00,
2013-06-30 22:48:00,66.8,55.1,29.84,NNW,331,0.0,0.0,66,0.00,,,0.00,0,Wunderground v.1.15,2013-07-01 04:48:00,
2013-06-30 22:54:00,66.3,54.2,29.85,NNW,331,0.0,0.0,65,0.00,,,0.00,0,Wunderground v.1.15,2013-07-01 04:54:00,
2013-06-30 23:00:00,65.8,53.7,29.85,NNW,331,0.0,0.0,65,0.00,,,0.00,0,Wunderground v.1.15,2013-07-01 05:00:00,
2013-06-30 23:06:00,65.3,53.6,29.86,East,82,1.0,3.0,66,0.00,,,0.00,0,Wunderground v.1.15,2013-07-01 05:06:00,
2013-06-30 23:12:00,65.0,54.6,29.86,SE,129,1.0,1.0,69,0.00,,,0.00,0,Wunderground v.1.15,2013-07-01 05:12:00,
2013-06-30 23:18:00,64.9,54.9,29.86,SE,144,1.0,3.0,70,0.00,,,0.00,0,Wunderground v.1.15,2013-07-01 05:18:00,
2013-06-30 23:24:00,64.7,54.3,29.86,SSE,155,1.0,2.0,69,0.00,,,0.00,0,Wunderground v.1.15,2013-07-01 05:24:00,
2013-06-30 23:30:00,64.6,54.2,29.86,SSE,167,2.0,2.0,69,0.00,,,0.00,0,Wunderground v.1.15,2013-07-01 05:30:00,
2013-06-30 23:36:00,64.5,54.1,29.86,SSE,167,1.0,2.0,69,0.00,,,0.00,0,Wunderground v.1.15,2013-07-01 05:36:00,
2013-06-30 23:42:00,64.4,54.0,29.87,SSE,167,0.0,1.0,69,0.00,,,0.00,0,Wunderground v.1.15,2013-07-01 05:42:00,
2013-06-30 23:48:00,64.2,53.8,29.87,SSE,158,0.0,3.0,69,0.00,,,0.00,0,Wunderground v.1.15,2013-07-01 05:48:00,
2013-06-30 23:54:00,64.1,53.3,29.87,SSE,158,1.0,2.0,68,0.00,,,0.00,0,Wunderground v.1.15,2013-07-01 05:54:00,